Time;durP1;ratioP1;P1;durP2;ratioP2;P2;SDS_P1;SDS_P2;PMS_P1;PMS_P2;Temp;Humidity;BMP_temperature;BMP_pressure;BME280_temperature;BME280_humidity;BME280_pressure;Samples;Min_cycle;Max_cycle;Signal;HPM_P1;HPM_P2
2024/01/09 00:00:42;;;;;;;7.50;5.30;;;-2.50;99.90;;;;;;5057568;28;20123;-70
2024/01/09 00:03:08;;;;;;;11.07;5.10;;;-2.50;99.90;;;;;;5058590;28;20076;-72
2024/01/09 00:05:33;;;;;;;7.90;5.30;;;-2.50;99.90;;;;;;5056914;28;20405;-71
2024/01/09 00:07:59;;;;;;;24.33;9.95;;;-2.60;99.90;;;;;;5092587;28;20170;-72
2024/01/09 00:10:24;;;;;;;9.88;5.85;;;-2.60;99.90;;;;;;5060936;28;20040;-72
2024/01/09 00:12:50;;;;;;;39.17;14.18;;;-2.60;99.90;;;;;;5089520;28;20397;-72
2024/01/09 00:15:16;;;;;;;11.00;5.00;;;-2.60;99.90;;;;;;5055790;28;20095;-72
2024/01/09 00:17:42;;;;;;;9.35;4.88;;;-2.60;99.90;;;;;;5057180;28;20719;-72
2024/01/09 00:20:08;;;;;;;8.73;5.25;;;-2.60;99.90;;;;;;5056393;28;20714;-73
2024/01/09 00:22:33;;;;;;;9.80;4.90;;;-2.60;99.90;;;;;;5039879;28;20048;-73
2024/01/09 00:24:59;;;;;;;8.93;5.20;;;-2.60;99.90;;;;;;5058316;28;20055;-72
2024/01/09 00:27:25;;;;;;;7.78;4.45;;;-2.60;99.90;;;;;;5093257;28;20400;-73
2024/01/09 00:29:50;;;;;;;7.32;4.32;;;-2.70;99.90;;;;;;5091379;27;20095;-73
2024/01/09 00:32:16;;;;;;;18.92;7.95;;;-2.70;99.90;;;;;;5059750;28;20036;-72
2024/01/09 00:34:41;;;;;;;7.40;4.50;;;-2.70;99.90;;;;;;5055617;28;20064;-72
2024/01/09 00:37:07;;;;;;;8.70;4.68;;;-2.70;99.90;;;;;;5060736;28;20076;-73
2024/01/09 00:39:33;;;;;;;8.25;4.72;;;-2.70;99.90;;;;;;5057335;28;20049;-73
2024/01/09 00:41:58;;;;;;;7.55;4.50;;;-2.70;99.90;;;;;;5059039;28;20051;-73
2024/01/09 00:44:24;;;;;;;10.07;5.38;;;-2.70;99.90;;;;;;5060255;28;20127;-71
2024/01/09 00:46:49;;;;;;;9.70;4.75;;;-2.80;99.90;;;;;;5058181;28;20048;-72
2024/01/09 00:49:15;;;;;;;8.25;4.97;;;-2.80;99.90;;;;;;5057188;28;20122;-72
2024/01/09 00:51:41;;;;;;;6.97;4.55;;;-2.80;99.90;;;;;;5058514;28;20119;-71
2024/01/09 00:54:06;;;;;;;10.18;5.00;;;-2.90;99.90;;;;;;5089858;28;20044;-73
2024/01/09 00:56:32;;;;;;;7.97;5.20;;;-2.90;99.90;;;;;;5075781;28;20441;-73
2024/01/09 00:58:58;;;;;;;8.45;4.43;;;-2.90;99.90;;;;;;5046519;28;20044;-73
2024/01/09 01:01:24;;;;;;;7.80;5.10;;;-3.00;99.90;;;;;;5063926;28;20044;-74
2024/01/09 01:03:49;;;;;;;8.57;4.70;;;-3.00;99.90;;;;;;5060600;28;20135;-73
2024/01/09 01:06:15;;;;;;;8.50;4.90;;;-3.00;99.90;;;;;;5060741;28;20059;-73
2024/01/09 01:08:40;;;;;;;7.25;4.65;;;-3.00;99.90;;;;;;5059748;28;20075;-73
2024/01/09 01:11:06;;;;;;;8.57;4.32;;;-3.10;99.90;;;;;;5061823;28;20094;-74
2024/01/09 01:13:32;;;;;;;6.65;4.63;;;-3.10;99.90;;;;;;5059131;28;21009;-73
2024/01/09 01:15:58;;;;;;;7.70;4.60;;;-3.10;99.90;;;;;;5057315;28;20033;-73
2024/01/09 01:18:23;;;;;;;7.93;4.95;;;-3.10;99.90;;;;;;5091516;28;20127;-74
2024/01/09 01:20:49;;;;;;;9.90;4.72;;;-3.20;99.90;;;;;;5059665;28;20044;-74
2024/01/09 01:23:14;;;;;;;7.30;4.45;;;-3.20;99.90;;;;;;5060333;28;20131;-74
2024/01/09 01:25:40;;;;;;;6.78;4.60;;;-3.20;99.90;;;;;;5060491;28;20045;-73
2024/01/09 01:28:06;;;;;;;6.85;4.40;;;-3.20;99.90;;;;;;5088671;27;20490;-73
2024/01/09 01:30:32;;;;;;;7.53;4.88;;;-3.20;99.90;;;;;;5060269;28;20063;-73
2024/01/09 01:32:57;;;;;;;7.45;4.50;;;-3.20;99.90;;;;;;5057761;28;20102;-73
2024/01/09 01:35:23;;;;;;;8.13;4.22;;;-3.20;99.90;;;;;;5061532;28;20055;-74
2024/01/09 01:37:48;;;;;;;7.05;4.30;;;-3.20;99.90;;;;;;5092864;28;20922;-74
2024/01/09 01:40:14;;;;;;;7.80;4.22;;;-3.20;99.90;;;;;;5059641;28;20098;-74
2024/01/09 01:42:40;;;;;;;7.05;4.57;;;-3.20;99.90;;;;;;5060824;28;20048;-74
2024/01/09 01:45:24;;;;;;;8.98;4.40;;;-3.30;99.90;;;;;;5063882;28;20032;-74
2024/01/09 01:47:51;;;;;;;7.82;4.28;;;-3.30;99.90;;;;;;5096331;28;20037;-74
2024/01/09 01:50:17;;;;;;;7.90;4.40;;;-3.30;99.90;;;;;;5061926;28;20052;-74
2024/01/09 01:52:44;;;;;;;8.98;4.47;;;-3.30;99.90;;;;;;5056197;28;20049;-72
2024/01/09 01:55:11;;;;;;;8.50;4.40;;;-3.30;99.90;;;;;;5056406;28;20525;-72
2024/01/09 01:57:38;;;;;;;7.00;4.07;;;-3.30;99.90;;;;;;5060305;28;20169;-73
2024/01/09 02:00:04;;;;;;;8.63;4.45;;;-3.40;99.90;;;;;;5058533;28;20040;-73
2024/01/09 02:02:31;;;;;;;7.97;4.32;;;-3.40;99.90;;;;;;5057371;28;20447;-72
2024/01/09 02:04:57;;;;;;;8.82;4.55;;;-3.40;99.90;;;;;;5060763;28;20544;-72
2024/01/09 02:07:25;;;;;;;6.88;4.38;;;-3.40;99.90;;;;;;5057135;28;20055;-72
2024/01/09 02:09:53;;;;;;;8.88;3.65;;;-3.40;99.90;;;;;;5057490;28;20045;-72
2024/01/09 02:12:19;;;;;;;7.47;4.35;;;-3.40;99.90;;;;;;5053477;28;20036;-72
2024/01/09 02:14:46;;;;;;;6.75;3.78;;;-3.40;99.90;;;;;;5072658;28;20170;-73
2024/01/09 02:17:12;;;;;;;10.13;4.20;;;-3.40;99.90;;;;;;5091930;28;20037;-76
2024/01/09 02:19:38;;;;;;;5.60;3.80;;;-3.40;99.90;;;;;;5057409;28;20400;-73
2024/01/09 02:22:04;;;;;;;6.97;3.55;;;-3.40;99.90;;;;;;5058238;28;20049;-72
2024/01/09 02:24:29;;;;;;;7.47;3.83;;;-3.40;99.90;;;;;;5053778;28;20048;-72
2024/01/09 02:27:17;;;;;;;6.60;3.67;;;-3.40;99.90;;;;;;5057540;28;20053;-73
2024/01/09 02:29:49;;;;;;;7.22;3.88;;;-3.50;99.90;;;;;;5089829;28;20851;-73
2024/01/09 02:32:16;;;;;;;7.20;3.80;;;-3.50;99.90;;;;;;5055677;28;20382;-73
2024/01/09 02:34:44;;;;;;;6.07;3.53;;;-3.50;99.90;;;;;;5055341;28;20040;-73
2024/01/09 02:37:10;;;;;;;6.38;3.75;;;-3.50;99.90;;;;;;5058725;28;20032;-73
2024/01/09 02:39:36;;;;;;;5.32;3.22;;;-3.50;99.90;;;;;;5055494;28;20139;-73
2024/01/09 02:42:02;;;;;;;5.38;3.30;;;-3.50;99.90;;;;;;5063361;28;20167;-75
2024/01/09 02:44:28;;;;;;;6.57;3.78;;;-3.50;99.90;;;;;;5050027;28;20113;-75
2024/01/09 02:46:53;;;;;;;7.00;3.92;;;-3.50;99.90;;;;;;5066032;28;20044;-76
2024/01/09 02:49:19;;;;;;;5.07;3.35;;;-3.50;99.90;;;;;;5082218;28;20127;-75
2024/01/09 02:51:45;;;;;;;7.28;3.58;;;-3.50;99.90;;;;;;5069330;28;20527;-75
2024/01/09 02:54:10;;;;;;;5.72;3.35;;;-3.50;99.90;;;;;;5066530;28;20086;-76
2024/01/09 02:56:39;;;;;;;8.23;3.63;;;-3.50;99.90;;;;;;5068562;28;20506;-76
2024/01/09 02:59:04;;;;;;;7.22;3.60;;;-3.50;99.90;;;;;;5064430;28;20115;-76
2024/01/09 03:01:30;;;;;;;8.05;3.80;;;-3.50;99.90;;;;;;5066909;28;20127;-75
2024/01/09 03:03:56;;;;;;;9.80;4.53;;;-3.50;99.90;;;;;;5050439;28;20044;-75
2024/01/09 03:06:21;;;;;;;6.50;3.30;;;-3.50;99.90;;;;;;5068662;28;20052;-75
2024/01/09 03:08:48;;;;;;;5.10;3.45;;;-3.50;99.90;;;;;;5065571;28;20097;-75
2024/01/09 03:11:17;;;;;;;6.93;3.40;;;-3.50;99.90;;;;;;5095951;28;20447;-76
2024/01/09 03:13:42;;;;;;;6.20;3.70;;;-3.60;99.90;;;;;;5079522;28;20133;-75
2024/01/09 03:16:12;;;;;;;7.68;3.40;;;-3.60;99.90;;;;;;5050423;28;20131;-75
2024/01/09 03:18:39;;;;;;;6.05;3.80;;;-3.60;99.90;;;;;;5070399;28;20098;-75
2024/01/09 03:21:05;;;;;;;6.25;3.47;;;-3.60;99.90;;;;;;5066895;28;20036;-75
2024/01/09 03:23:33;;;;;;;6.03;3.67;;;-3.60;99.90;;;;;;5094564;28;20688;-74
2024/01/09 03:25:59;;;;;;;5.82;3.10;;;-3.60;99.90;;;;;;5066724;28;20048;-76
2024/01/09 03:28:26;;;;;;;5.80;3.08;;;-3.60;99.90;;;;;;5067816;28;20064;-75
2024/01/09 03:30:52;;;;;;;6.57;3.30;;;-3.60;99.90;;;;;;5101973;27;20039;-75
2024/01/09 03:33:17;;;;;;;6.65;3.33;;;-3.60;99.90;;;;;;5048495;28;20051;-76
2024/01/09 03:35:43;;;;;;;6.38;3.58;;;-3.70;99.90;;;;;;5066625;28;20051;-75
2024/01/09 03:38:09;;;;;;;8.07;3.50;;;-3.60;99.90;;;;;;5067176;28;20047;-74
2024/01/09 03:40:35;;;;;;;6.32;3.55;;;-3.60;99.90;;;;;;5093835;28;20102;-73
2024/01/09 03:43:02;;;;;;;6.25;3.65;;;-3.60;99.90;;;;;;5059253;28;20044;-73
2024/01/09 03:45:29;;;;;;;5.13;3.42;;;-3.70;99.90;;;;;;5075078;28;20048;-73
2024/01/09 03:47:55;;;;;;;6.95;3.40;;;-3.70;99.90;;;;;;5065040;28;20037;-75
2024/01/09 03:50:21;;;;;;;6.93;3.53;;;-3.70;99.90;;;;;;5063664;28;20139;-75
2024/01/09 03:52:46;;;;;;;7.25;3.50;;;-3.60;99.90;;;;;;5063125;28;20047;-75
2024/01/09 03:55:12;;;;;;;5.38;3.20;;;-3.70;99.90;;;;;;5064370;28;20072;-76
2024/01/09 03:57:38;;;;;;;5.43;3.40;;;-3.70;99.90;;;;;;5067083;28;20040;-75
2024/01/09 04:00:04;;;;;;;7.15;3.17;;;-3.70;99.90;;;;;;5067651;28;20114;-75
2024/01/09 04:02:30;;;;;;;5.80;3.30;;;-3.70;99.90;;;;;;5098600;28;20140;-74
2024/01/09 04:04:55;;;;;;;9.10;3.92;;;-3.70;99.90;;;;;;5067221;28;20115;-75
2024/01/09 04:07:21;;;;;;;9.23;3.20;;;-3.70;99.90;;;;;;5067415;28;20679;-76
2024/01/09 04:09:46;;;;;;;7.22;3.33;;;-3.80;99.90;;;;;;5067229;28;20048;-75
2024/01/09 04:12:12;;;;;;;5.10;3.40;;;-3.80;99.90;;;;;;5062235;28;20056;-75
2024/01/09 04:14:38;;;;;;;5.38;3.42;;;-3.80;99.90;;;;;;5069944;28;20048;-76
2024/01/09 04:17:03;;;;;;;4.40;3.20;;;-3.80;99.90;;;;;;5060782;28;20060;-75
2024/01/09 04:19:29;;;;;;;5.85;3.20;;;-3.80;99.90;;;;;;5069193;28;20111;-76
2024/01/09 04:21:55;;;;;;;5.32;3.25;;;-3.80;99.90;;;;;;5065870;28;20515;-77
2024/01/09 04:24:20;;;;;;;4.28;3.10;;;-3.80;99.90;;;;;;5067699;28;20420;-75
2024/01/09 04:26:46;;;;;;;7.07;3.47;;;-3.80;99.90;;;;;;5066251;28;20650;-75
2024/01/09 04:29:11;;;;;;;6.40;3.22;;;-3.80;99.90;;;;;;5063842;28;20049;-76
2024/01/09 04:31:37;;;;;;;5.57;3.15;;;-3.80;99.90;;;;;;5065830;28;20045;-76
2024/01/09 04:34:03;;;;;;;4.95;3.53;;;-3.80;99.90;;;;;;5064755;28;20049;-75
2024/01/09 04:36:28;;;;;;;5.53;3.65;;;-3.80;99.90;;;;;;5067637;28;20048;-75
2024/01/09 04:38:54;;;;;;;5.53;3.40;;;-3.80;99.90;;;;;;5065526;28;20044;-76
2024/01/09 04:41:20;;;;;;;4.72;3.25;;;-3.80;99.90;;;;;;5064118;28;20068;-75
2024/01/09 04:43:46;;;;;;;5.43;3.35;;;-3.80;99.90;;;;;;5064974;28;20407;-75
2024/01/09 04:46:12;;;;;;;5.28;3.15;;;-3.90;99.90;;;;;;5065604;28;20044;-75
2024/01/09 04:48:38;;;;;;;6.07;3.60;;;-3.80;99.90;;;;;;5095236;28;20507;-76
2024/01/09 04:51:04;;;;;;;4.78;3.30;;;-3.80;99.90;;;;;;5094473;27;20043;-74
2024/01/09 04:53:29;;;;;;;5.78;3.28;;;-3.90;99.90;;;;;;5058266;28;20074;-74
2024/01/09 04:55:55;;;;;;;7.07;3.75;;;-3.90;99.90;;;;;;5058546;28;20053;-73
2024/01/09 04:58:20;;;;;;;5.55;3.50;;;-3.90;99.90;;;;;;5056035;28;20079;-73
2024/01/09 05:00:47;;;;;;;6.55;3.50;;;-3.90;99.90;;;;;;5060107;28;20036;-74
2024/01/09 05:03:13;;;;;;;5.70;3.53;;;-3.90;99.90;;;;;;5061077;28;20052;-76
2024/01/09 05:05:39;;;;;;;5.35;3.25;;;-4.00;99.90;;;;;;5067235;28;20105;-76
2024/01/09 05:08:04;;;;;;;6.30;3.60;;;-4.00;99.90;;;;;;5058018;28;20055;-73
2024/01/09 05:10:31;;;;;;;4.28;3.30;;;-4.00;99.90;;;;;;5077124;28;20040;-74
2024/01/09 05:12:57;;;;;;;7.75;3.03;;;-4.00;99.90;;;;;;5054790;28;20060;-73
2024/01/09 05:15:23;;;;;;;7.38;3.55;;;-4.00;99.90;;;;;;5090921;28;20690;-76
2024/01/09 05:17:49;;;;;;;7.38;3.38;;;-4.00;99.90;;;;;;5062997;28;20041;-77
2024/01/09 05:20:15;;;;;;;5.95;3.30;;;-4.00;99.90;;;;;;5098618;28;20036;-75
2024/01/09 05:22:40;;;;;;;6.22;3.60;;;-4.00;99.90;;;;;;5065023;28;20045;-75
2024/01/09 05:25:09;;;;;;;8.15;3.88;;;-4.00;99.90;;;;;;5066942;28;20052;-75
2024/01/09 05:27:35;;;;;;;6.53;3.63;;;-4.00;99.90;;;;;;5061861;28;20051;-75
2024/01/09 05:30:00;;;;;;;5.95;3.60;;;-4.00;99.90;;;;;;5065431;28;20040;-75
2024/01/09 05:32:26;;;;;;;5.75;3.85;;;-4.00;99.90;;;;;;5060807;28;20421;-76
2024/01/09 05:34:52;;;;;;;5.50;3.35;;;-4.10;99.90;;;;;;5097718;28;20071;-75
2024/01/09 05:37:18;;;;;;;5.38;3.90;;;-4.10;99.90;;;;;;5061140;28;20056;-76
2024/01/09 05:39:45;;;;;;;7.35;4.20;;;-4.10;99.90;;;;;;5077413;28;20049;-75
2024/01/09 05:42:11;;;;;;;6.90;3.63;;;-4.10;99.90;;;;;;5037874;28;20045;-72
2024/01/09 05:44:37;;;;;;;5.57;3.25;;;-4.10;99.90;;;;;;5058519;28;20041;-72
2024/01/09 05:47:03;;;;;;;10.38;3.83;;;-4.20;99.90;;;;;;5088070;28;20089;-73
2024/01/09 05:49:28;;;;;;;5.50;3.97;;;-4.20;99.90;;;;;;5055287;28;20041;-72
2024/01/09 05:51:54;;;;;;;5.80;3.70;;;-4.20;99.90;;;;;;5055975;28;20097;-72
2024/01/09 05:54:19;;;;;;;5.65;3.70;;;-4.20;99.90;;;;;;5057181;28;20079;-73
2024/01/09 05:56:45;;;;;;;8.57;3.97;;;-4.20;99.90;;;;;;5058735;28;20033;-72
2024/01/09 05:59:11;;;;;;;7.15;3.80;;;-4.20;99.90;;;;;;5054146;28;20056;-72
2024/01/09 06:01:36;;;;;;;6.22;3.40;;;-4.20;99.90;;;;;;5053346;28;20432;-73
2024/01/09 06:04:02;;;;;;;5.63;3.60;;;-4.20;99.90;;;;;;5054149;28;20072;-73
2024/01/09 06:06:29;;;;;;;5.72;3.60;;;-4.20;99.90;;;;;;5056742;28;20382;-73
2024/01/09 06:08:55;;;;;;;5.15;3.38;;;-4.20;99.90;;;;;;5055086;28;20040;-73
2024/01/09 06:11:21;;;;;;;6.00;3.72;;;-4.20;99.90;;;;;;5054964;28;20037;-73
2024/01/09 06:13:47;;;;;;;4.68;3.30;;;-4.20;99.90;;;;;;5057177;28;20160;-72
2024/01/09 06:16:13;;;;;;;5.57;3.53;;;-4.20;99.90;;;;;;5060334;28;20062;-73
2024/01/09 06:18:39;;;;;;;5.40;3.45;;;-4.20;99.90;;;;;;5060493;28;20041;-73
2024/01/09 06:21:05;;;;;;;6.82;3.78;;;-4.20;99.90;;;;;;5060771;28;20081;-73
2024/01/09 06:23:31;;;;;;;7.25;3.92;;;-4.20;99.90;;;;;;5059808;28;20373;-73
2024/01/09 06:25:56;;;;;;;4.63;3.08;;;-4.30;99.90;;;;;;5056781;28;20935;-73
2024/01/09 06:28:22;;;;;;;5.38;4.00;;;-4.30;99.90;;;;;;5059702;28;20323;-72
2024/01/09 06:30:47;;;;;;;5.60;3.72;;;-4.30;99.90;;;;;;5058345;28;20036;-72
2024/01/09 06:33:13;;;;;;;5.57;3.20;;;-4.30;99.90;;;;;;5070962;28;20043;-72
2024/01/09 06:35:39;;;;;;;5.07;3.65;;;-4.30;99.90;;;;;;5057252;28;20048;-72
2024/01/09 06:38:04;;;;;;;5.18;3.60;;;-4.30;99.90;;;;;;5056854;28;20828;-73
2024/01/09 06:40:30;;;;;;;5.43;3.72;;;-4.30;99.90;;;;;;5056069;28;20075;-73
2024/01/09 06:42:56;;;;;;;6.65;3.50;;;-4.30;99.90;;;;;;5057193;28;20044;-74
2024/01/09 06:45:21;;;;;;;6.47;3.78;;;-4.30;99.90;;;;;;5061584;28;20144;-72
2024/01/09 06:47:47;;;;;;;7.13;4.38;;;-4.40;99.90;;;;;;5043469;28;20052;-71
2024/01/09 06:50:13;;;;;;;6.43;4.22;;;-4.40;99.90;;;;;;5092857;28;20059;-73
2024/01/09 06:52:39;;;;;;;7.30;4.00;;;-4.40;99.90;;;;;;5057933;28;20053;-73
2024/01/09 06:55:05;;;;;;;5.63;3.50;;;-4.40;99.90;;;;;;5041067;28;20051;-73
2024/01/09 06:57:30;;;;;;;7.18;3.58;;;-4.40;99.90;;;;;;5075613;28;20047;-73
2024/01/09 06:59:56;;;;;;;6.30;4.07;;;-4.40;99.90;;;;;;5062459;28;20493;-76
2024/01/09 07:02:22;;;;;;;5.20;3.67;;;-4.40;99.90;;;;;;5063094;28;21068;-77
2024/01/09 07:04:47;;;;;;;6.45;3.95;;;-4.40;99.90;;;;;;5096966;27;20041;-77
2024/01/09 07:07:13;;;;;;;7.75;3.90;;;-4.40;99.90;;;;;;5099078;27;20139;-75
2024/01/09 07:09:40;;;;;;;6.50;4.03;;;-4.40;99.90;;;;;;5062608;28;20906;-78
2024/01/09 07:12:09;;;;;;;7.70;4.20;;;-4.40;99.90;;;;;;5096328;27;20526;-77
2024/01/09 07:14:37;;;;;;;5.63;3.80;;;-4.50;99.90;;;;;;5055720;28;20063;-73
2024/01/09 07:17:07;;;;;;;5.65;3.90;;;-4.50;99.90;;;;;;5095553;28;20032;-76
2024/01/09 07:19:33;;;;;;;7.22;3.95;;;-4.50;99.90;;;;;;5094707;28;20072;-76
2024/01/09 07:21:59;;;;;;;10.23;4.35;;;-4.50;99.90;;;;;;5073817;28;20693;-75
2024/01/09 07:24:24;;;;;;;5.15;3.45;;;-4.60;99.90;;;;;;5057603;28;20036;-74
2024/01/09 07:26:50;;;;;;;6.38;4.20;;;-4.60;99.90;;;;;;5060066;28;20032;-75
2024/01/09 07:29:19;;;;;;;7.20;4.22;;;-4.50;99.90;;;;;;5076497;28;20049;-74
2024/01/09 07:31:45;;;;;;;6.65;3.95;;;-4.60;99.90;;;;;;5060278;28;20149;-74
2024/01/09 07:34:10;;;;;;;7.40;4.30;;;-4.50;99.90;;;;;;5060548;28;20044;-74
2024/01/09 07:36:36;;;;;;;8.23;4.78;;;-4.50;99.90;;;;;;5058850;28;20047;-73
2024/01/09 07:39:02;;;;;;;7.97;4.68;;;-4.60;99.90;;;;;;5059686;28;20040;-74
2024/01/09 07:41:28;;;;;;;7.45;4.30;;;-4.60;99.90;;;;;;5062379;28;20111;-74
2024/01/09 07:43:53;;;;;;;7.40;4.13;;;-4.60;99.90;;;;;;5057943;28;20119;-73
2024/01/09 07:46:19;;;;;;;7.88;4.53;;;-4.60;99.90;;;;;;5060452;28;20138;-73
2024/01/09 07:48:45;;;;;;;6.30;4.13;;;-4.60;99.90;;;;;;5060499;28;20055;-74
2024/01/09 07:51:10;;;;;;;7.55;4.35;;;-4.60;99.90;;;;;;5065337;28;20050;-74
2024/01/09 07:53:36;;;;;;;7.93;4.25;;;-4.60;99.90;;;;;;5058024;28;20045;-74
2024/01/09 07:56:02;;;;;;;7.60;4.03;;;-4.60;99.90;;;;;;5078230;28;20139;-74
2024/01/09 07:58:27;;;;;;;11.27;4.70;;;-4.60;99.90;;;;;;5080260;28;20032;-74
2024/01/09 08:00:56;;;;;;;8.43;4.45;;;-4.60;99.90;;;;;;5080262;28;20067;-74
2024/01/09 08:03:21;;;;;;;5.80;3.78;;;-4.60;99.90;;;;;;5060882;28;20554;-74
2024/01/09 08:05:47;;;;;;;7.78;3.92;;;-4.50;99.90;;;;;;5053871;28;20110;-74
2024/01/09 08:08:13;;;;;;;9.32;4.63;;;-4.60;99.90;;;;;;5077929;28;20098;-74
2024/01/09 08:10:38;;;;;;;6.65;4.13;;;-4.60;99.90;;;;;;5063012;28;20097;-75
2024/01/09 08:13:04;;;;;;;7.35;4.15;;;-4.60;99.90;;;;;;5059491;28;20161;-74
2024/01/09 08:15:29;;;;;;;10.90;6.50;;;-4.60;99.90;;;;;;5060443;28;20083;-74
2024/01/09 08:17:55;;;;;;;11.18;5.38;;;-4.60;99.90;;;;;;5059195;28;20438;-74
2024/01/09 08:20:21;;;;;;;6.57;3.90;;;-4.60;99.90;;;;;;5064702;28;20029;-73
2024/01/09 08:22:48;;;;;;;7.50;4.35;;;-4.60;99.90;;;;;;5059162;28;21045;-74
2024/01/09 08:25:14;;;;;;;9.20;4.88;;;-4.60;99.90;;;;;;5062390;28;20044;-73
2024/01/09 08:27:40;;;;;;;10.25;4.20;;;-4.60;99.90;;;;;;5061258;28;20040;-74
2024/01/09 08:30:08;;;;;;;7.22;4.20;;;-4.50;99.90;;;;;;5062189;28;20048;-75
2024/01/09 08:32:33;;;;;;;7.18;4.45;;;-4.60;99.90;;;;;;5055612;28;20052;-74
2024/01/09 08:34:59;;;;;;;5.93;3.88;;;-4.60;99.90;;;;;;5057706;28;20472;-74
2024/01/09 08:37:25;;;;;;;7.82;4.40;;;-4.50;99.90;;;;;;5057917;28;20569;-74
2024/01/09 08:39:50;;;;;;;8.65;4.30;;;-4.50;99.90;;;;;;5056758;28;20056;-74
2024/01/09 08:42:16;;;;;;;8.73;4.60;;;-4.50;99.90;;;;;;5089810;28;20069;-74
2024/01/09 08:44:41;;;;;;;10.48;4.63;;;-4.50;99.90;;;;;;5059241;28;20049;-75
2024/01/09 08:47:07;;;;;;;8.20;4.10;;;-4.40;99.90;;;;;;5056455;28;20048;-74
2024/01/09 08:49:33;;;;;;;7.30;4.22;;;-4.40;99.90;;;;;;5091674;28;20524;-74
2024/01/09 08:51:58;;;;;;;7.80;4.30;;;-4.40;99.90;;;;;;5060883;28;20166;-75
2024/01/09 08:54:24;;;;;;;10.00;4.10;;;-4.40;99.90;;;;;;5058854;28;20036;-75
2024/01/09 08:56:50;;;;;;;7.25;4.30;;;-4.40;99.90;;;;;;5057380;28;20527;-74
2024/01/09 08:59:15;;;;;;;7.10;4.10;;;-4.40;99.90;;;;;;5058669;28;20036;-74
2024/01/09 09:01:41;;;;;;;6.68;3.85;;;-4.30;99.90;;;;;;5059241;28;20051;-74
2024/01/09 09:04:06;;;;;;;7.03;4.00;;;-4.20;99.90;;;;;;5091814;28;20044;-74
2024/01/09 09:06:32;;;;;;;7.10;4.10;;;-4.20;99.90;;;;;;5059989;28;20406;-74
2024/01/09 09:08:58;;;;;;;7.93;4.00;;;-4.30;99.90;;;;;;5057441;28;21777;-74
2024/01/09 09:11:23;;;;;;;8.48;4.40;;;-4.20;99.90;;;;;;5059988;28;20047;-75
2024/01/09 09:13:49;;;;;;;7.35;4.22;;;-4.10;99.90;;;;;;5057042;28;20037;-74
2024/01/09 09:16:15;;;;;;;6.90;4.15;;;-4.20;99.90;;;;;;5060344;28;20040;-74
2024/01/09 09:18:41;;;;;;;8.60;4.10;;;-4.10;99.90;;;;;;5088634;27;20082;-74
2024/01/09 09:21:07;;;;;;;7.78;3.95;;;-4.10;99.90;;;;;;5060033;28;20497;-74
2024/01/09 09:23:33;;;;;;;5.60;3.50;;;-4.10;99.90;;;;;;5058589;28;20087;-74
2024/01/09 09:25:59;;;;;;;7.95;4.00;;;-4.00;99.90;;;;;;5058313;28;20047;-74
2024/01/09 09:28:24;;;;;;;6.72;3.63;;;-4.00;99.90;;;;;;5058103;28;20101;-74
2024/01/09 09:30:50;;;;;;;6.72;3.58;;;-3.90;99.90;;;;;;5055679;28;20045;-74
2024/01/09 09:33:15;;;;;;;5.63;3.70;;;-3.90;99.90;;;;;;5054187;28;20056;-74
2024/01/09 09:35:41;;;;;;;8.07;4.40;;;-3.90;99.90;;;;;;5058866;28;20036;-74
2024/01/09 09:38:07;;;;;;;8.50;3.97;;;-3.80;99.90;;;;;;5057974;28;20105;-74
2024/01/09 09:40:32;;;;;;;8.65;4.25;;;-3.80;99.90;;;;;;5092485;28;20044;-74
2024/01/09 09:43:02;;;;;;;7.13;4.05;;;-3.70;99.90;;;;;;5092254;28;20121;-74
2024/01/09 09:45:31;;;;;;;6.35;3.80;;;-3.70;99.90;;;;;;5060100;28;20044;-74
2024/01/09 09:47:58;;;;;;;8.43;4.15;;;-3.70;99.90;;;;;;5073446;28;20068;-74
2024/01/09 09:50:26;;;;;;;5.80;3.60;;;-3.60;99.90;;;;;;5063754;28;20040;-74
2024/01/09 09:52:53;;;;;;;5.93;3.85;;;-3.60;99.90;;;;;;5079883;28;20065;-73
2024/01/09 09:55:19;;;;;;;6.85;3.70;;;-3.50;99.90;;;;;;5069290;28;20085;-76
2024/01/09 09:57:45;;;;;;;7.10;3.58;;;-3.50;99.90;;;;;;5072004;28;20037;-76
2024/01/09 10:00:11;;;;;;;5.38;3.30;;;-3.40;99.90;;;;;;5104003;28;20047;-76
2024/01/09 10:02:47;;;;;;;6.72;3.53;;;-3.40;99.90;;;;;;5099995;27;20064;-76
2024/01/09 10:05:18;;;;;;;6.03;3.47;;;-3.40;99.90;;;;;;5062205;28;20054;-73
2024/01/09 10:07:52;;;;;;;5.18;3.33;;;-3.30;99.90;;;;;;5065362;28;20390;-73
2024/01/09 10:10:18;;;;;;;6.80;3.40;;;-3.20;99.90;;;;;;5067453;28;20045;-75
2024/01/09 10:12:45;;;;;;;6.40;3.25;;;-3.20;99.90;;;;;;5061939;28;20049;-75
2024/01/09 10:15:12;;;;;;;5.43;3.22;;;-3.10;99.90;;;;;;5070456;28;20040;-75
2024/01/09 10:17:41;;;;;;;6.57;3.35;;;-3.10;99.90;;;;;;5070338;28;20033;-75
2024/01/09 10:20:12;;;;;;;6.97;3.60;;;-3.00;99.90;;;;;;5063653;28;20133;-74
2024/01/09 10:22:39;;;;;;;6.97;3.70;;;-3.00;99.90;;;;;;5062756;28;20040;-73
2024/01/09 10:25:06;;;;;;;6.20;3.60;;;-2.90;99.90;;;;;;5066285;28;20397;-73
2024/01/09 10:27:36;;;;;;;6.30;3.90;;;-2.80;99.90;;;;;;5050557;28;20047;-73
2024/01/09 10:30:06;;;;;;;7.93;3.63;;;-2.80;99.90;;;;;;5062964;28;20509;-73
2024/01/09 10:32:36;;;;;;;4.85;3.33;;;-2.80;99.90;;;;;;5093384;28;20508;-72
2024/01/09 10:35:07;;;;;;;5.32;3.17;;;-2.70;99.90;;;;;;5059673;28;20033;-72
2024/01/09 10:37:36;;;;;;;5.50;3.47;;;-2.60;99.90;;;;;;5059542;28;20040;-71
2024/01/09 10:40:05;;;;;;;6.65;3.30;;;-2.60;99.90;;;;;;5061045;28;20120;-72
2024/01/09 10:42:31;;;;;;;6.47;3.25;;;-2.50;99.90;;;;;;5061006;28;20570;-72
2024/01/09 10:45:00;;;;;;;6.45;3.13;;;-2.50;99.90;;;;;;5060456;28;20079;-72
2024/01/09 10:47:27;;;;;;;5.40;3.20;;;-2.40;99.90;;;;;;5064385;28;20106;-73
2024/01/09 10:49:54;;;;;;;4.82;3.13;;;-2.40;99.90;;;;;;5075471;28;20087;-75
2024/01/09 10:52:20;;;;;;;8.00;3.33;;;-2.30;99.90;;;;;;5068438;28;20113;-75
2024/01/09 10:54:46;;;;;;;6.85;3.40;;;-2.20;99.90;;;;;;5059856;28;20040;-74
2024/01/09 10:57:13;;;;;;;4.05;2.63;;;-2.20;99.90;;;;;;5093817;27;20578;-73
2024/01/09 10:59:43;;;;;;;5.07;2.85;;;-2.20;99.90;;;;;;5091999;28;20037;-72
2024/01/09 11:02:34;;;;;;;4.50;2.75;;;-2.00;99.90;;;;;;5059298;28;20511;-73
2024/01/09 11:05:02;;;;;;;6.80;3.15;;;-2.00;99.90;;;;;;5091148;28;20083;-73
2024/01/09 11:07:30;;;;;;;7.53;3.05;;;-2.00;99.90;;;;;;5059200;28;20604;-73
2024/01/09 11:09:58;;;;;;;5.22;3.10;;;-1.90;99.90;;;;;;5058797;28;20068;-73
2024/01/09 11:12:27;;;;;;;4.35;2.63;;;-1.90;99.90;;;;;;5090767;28;20075;-73
2024/01/09 11:15:16;;;;;;;4.60;2.80;;;-1.80;99.90;;;;;;5060655;28;20044;-73
2024/01/09 11:17:47;;;;;;;4.05;3.03;;;-1.80;99.90;;;;;;5085178;28;20799;-73
2024/01/09 11:20:14;;;;;;;4.25;2.97;;;-1.70;99.90;;;;;;5062187;28;20098;-73
2024/01/09 11:22:41;;;;;;;6.28;2.90;;;-1.60;99.90;;;;;;5065428;28;20043;-73
2024/01/09 11:25:16;;;;;;;4.22;2.78;;;-1.60;99.90;;;;;;5095065;28;20041;-74
2024/01/09 11:27:43;;;;;;;4.35;2.97;;;-1.50;99.90;;;;;;5060622;28;20059;-74
2024/01/09 11:30:14;;;;;;;4.22;2.78;;;-1.50;99.90;;;;;;5082185;28;20123;-74
2024/01/09 11:32:40;;;;;;;4.82;2.88;;;-1.40;99.90;;;;;;5060921;28;20098;-74
2024/01/09 11:35:17;;;;;;;3.42;2.85;;;-1.30;99.90;;;;;;5063791;28;20040;-74
2024/01/09 11:37:52;;;;;;;5.82;2.78;;;-1.30;99.90;;;;;;5061049;28;20029;-74
2024/01/09 11:40:19;;;;;;;6.40;2.72;;;-1.20;99.90;;;;;;5062251;28;20032;-74
2024/01/09 11:42:46;;;;;;;5.68;2.97;;;-1.20;99.90;;;;;;5093581;28;20138;-74
2024/01/09 11:45:18;;;;;;;7.68;2.88;;;-1.10;99.90;;;;;;5060345;28;20037;-74
2024/01/09 11:47:44;;;;;;;5.88;3.10;;;-1.00;99.90;;;;;;5059291;28;20080;-74
2024/01/09 11:50:11;;;;;;;7.50;2.80;;;-0.90;99.90;;;;;;5061758;28;20534;-75
2024/01/09 11:52:39;;;;;;;5.05;3.20;;;-0.80;99.90;;;;;;5058244;28;20075;-75
2024/01/09 11:55:07;;;;;;;4.50;2.88;;;-0.70;99.90;;;;;;5062503;28;20048;-75
2024/01/09 11:57:34;;;;;;;5.00;2.65;;;-0.60;99.90;;;;;;5091047;28;20095;-74
2024/01/09 12:00:01;;;;;;;5.82;3.03;;;-0.60;99.90;;;;;;5092519;28;20156;-74
2024/01/09 12:02:26;;;;;;;6.10;2.90;;;-0.50;99.90;;;;;;5092151;28;20041;-74
2024/01/09 12:04:53;;;;;;;4.43;2.80;;;-0.40;99.90;;;;;;5089658;27;20041;-75
2024/01/09 12:13:20;;;;;;;;;;;;;;;;;;;;;
2024/01/09 12:19:15;;;;;;;;;;;;;;;;;;;;;
2024/01/09 12:21:47;;;;;;;5.43;3.65;;;0.20;99.90;;;;;;5062304;28;20044;-72
2024/01/09 12:24:13;;;;;;;5.22;2.88;;;0.30;99.90;;;;;;5062862;28;20043;-73
2024/01/09 12:26:39;;;;;;;6.75;3.15;;;0.40;99.90;;;;;;5079718;28;20040;-73
2024/01/09 12:29:06;;;;;;;4.35;2.80;;;0.60;99.90;;;;;;5060957;28;20135;-73
2024/01/09 12:31:33;;;;;;;4.22;3.00;;;0.90;99.90;;;;;;5064390;28;20546;-71
2024/01/09 12:33:59;;;;;;;5.00;3.00;;;1.20;99.90;;;;;;5046204;28;20052;-72
2024/01/09 12:36:27;;;;;;;5.70;3.15;;;1.50;99.90;;;;;;5045859;28;20063;-72
2024/01/09 12:38:54;;;;;;;4.38;2.90;;;1.60;99.90;;;;;;5043954;28;20045;-72
2024/01/09 12:41:23;;;;;;;4.72;3.00;;;1.70;99.90;;;;;;5045489;28;20131;-72
2024/01/09 12:43:50;;;;;;;5.00;2.72;;;1.80;99.90;;;;;;5064595;28;20044;-72
2024/01/09 12:46:16;;;;;;;4.30;3.08;;;1.90;99.90;;;;;;5059115;28;20045;-72
2024/01/09 12:48:42;;;;;;;5.15;2.60;;;2.00;99.90;;;;;;5042311;28;20043;-72
2024/01/09 12:51:09;;;;;;;4.40;3.00;;;2.10;99.90;;;;;;5065920;28;20411;-72
2024/01/09 12:53:36;;;;;;;4.07;2.78;;;2.00;99.90;;;;;;5060668;28;20059;-72